Avalon, Texas
Current Conditions -  °F | °C
As of 5:55 PM on Wednesday 22 Oct 2014 (Local Time) from KJWY Reporting Station
Clear Clear  
Wind Chill: 76°   Ceiling: Unl
Heat Index: 76°   Visibility: 10mi
Dew Point: 58°   Wind: 3mph
Humidity: 55%   Direction: 80°E
Pressure: 30.09"   Gusts: NA
Location:  32.21°N, 96.79°W
Report Text: KJWY 222255Z AUTO 08003KT 10SM CLR 24/15 A3009 RMK AO2 T02440147
Loading
Personal Weather Stations






























Interactive Weather Map
Tropical Storm Tracking
New forecast layout! Learn more

10-Day Weather Forecast

Advertisements
Track Severe Weather on mobile